PY-0036 weather

Estancia El Dorado Airport
Estancia El Dorado, Boquerón Department, Paraguay

Public forecast

Using degrees Celsius for public forecast. Weather courtesy of forecast.io.

METAR (pilot weather report)

Report is more than 6 hours old.

Closest report is Dr. Luis Maria Argaña International Airport, 63.2 nm (117.0 km) SE. Retrieved 2019/09/21 09:00 UTC (2 days ago):

SGME 210900Z 18012KT 9999 OVC012 21/16 Q1018

TAF (pilot weather forecast)

Forecast is more than 12 hours old.

Closest forecast is Yacuiba Airport, 126.0 nm (233.4 km) WSW. Retrieved 2019/09/08 18:30 UTC (15 days ago):

TAF SLYA 081600Z 0818/0918 06010KT 9999 FEW020 SCT070 TX27/0819Z TN13 /0911Z BECMG 0900/0902 00000KT